createdAt,value
2018-10-17T00:00:58.863Z,61.92
2018-10-17T00:03:27.395Z,61.27
2018-10-17T00:05:56.448Z,61.07
2018-10-17T00:08:24.969Z,61.42
2018-10-17T00:10:53.489Z,62.26
2018-10-17T00:13:22.048Z,61.46
2018-10-17T00:15:50.482Z,62.13
2018-10-17T00:18:18.959Z,62.08
2018-10-17T00:20:47.861Z,61.20
2018-10-17T00:23:17.083Z,61.97
2018-10-17T00:25:45.500Z,62.14
2018-10-17T00:28:14.165Z,62.04
2018-10-17T00:30:43.183Z,61.96
2018-10-17T00:33:11.615Z,61.72
2018-10-17T00:35:40.279Z,61.85
2018-10-17T00:38:08.736Z,62.65
2018-10-17T00:40:37.422Z,62.86
2018-10-17T00:43:06.056Z,62.90
2018-10-17T00:45:34.542Z,62.15
2018-10-17T00:48:03.193Z,62.98
2018-10-17T00:50:31.697Z,62.89
2018-10-17T00:53:00.181Z,62.51
2018-10-17T00:55:28.898Z,62.75
2018-10-17T00:57:57.445Z,63.26
2018-10-17T01:00:26.086Z,63.20
2018-10-17T01:02:54.643Z,63.74
2018-10-17T01:05:23.687Z,64.28
2018-10-17T01:07:52.102Z,63.84
2018-10-17T01:10:20.760Z,63.83
2018-10-17T01:12:49.313Z,64.18
2018-10-17T01:15:17.932Z,63.48
2018-10-17T01:17:46.364Z,63.89
2018-10-17T01:20:14.849Z,64.09
2018-10-17T01:22:43.454Z,64.67
2018-10-17T01:25:12.095Z,63.82
2018-10-17T01:27:40.721Z,64.24
2018-10-17T01:30:09.229Z,64.42
2018-10-17T01:32:37.865Z,63.88
2018-10-17T01:35:07.571Z,64.50
2018-10-17T01:37:35.947Z,64.08
2018-10-17T01:40:06.559Z,64.40
2018-10-17T01:42:35.045Z,64.94
2018-10-17T01:45:03.780Z,64.32
2018-10-17T01:47:32.228Z,64.19
2018-10-17T01:50:00.757Z,64.69
2018-10-17T01:52:29.328Z,64.16
2018-10-17T01:54:58.006Z,64.59
2018-10-17T01:57:27.049Z,65.19
2018-10-17T01:59:56.347Z,64.37
2018-10-17T02:02:24.895Z,65.30
2018-10-17T02:04:53.493Z,64.48
2018-10-17T02:07:21.863Z,65.16
2018-10-17T02:09:50.548Z,65.18
2018-10-17T02:12:19.023Z,65.05
2018-10-17T02:14:47.463Z,64.89
2018-10-17T02:17:16.068Z,65.12
2018-10-17T02:19:44.636Z,65.54
2018-10-17T02:22:13.764Z,65.13
2018-10-17T02:24:42.218Z,65.53
2018-10-17T02:27:10.740Z,65.16
2018-10-17T02:29:39.888Z,65.96
2018-10-17T02:32:08.423Z,66.07
2018-10-17T02:34:49.029Z,66.18
2018-10-17T02:37:17.519Z,65.58
2018-10-17T02:39:46.067Z,65.53
2018-10-17T02:42:14.411Z,65.88
2018-10-17T02:44:43.488Z,66.20
2018-10-17T02:47:12.239Z,65.67
2018-10-17T02:49:41.180Z,66.27
2018-10-17T02:52:09.833Z,65.91
2018-10-17T02:54:38.288Z,66.46
2018-10-17T02:57:06.890Z,66.78
2018-10-17T02:59:35.486Z,66.00
2018-10-17T03:02:04.073Z,66.43
2018-10-17T03:04:32.530Z,67.11
2018-10-17T03:07:01.033Z,66.41
2018-10-17T03:09:29.724Z,66.84
2018-10-17T03:11:58.157Z,67.19
2018-10-17T03:14:26.747Z,67.46
2018-10-17T03:16:55.258Z,66.88
2018-10-17T03:19:23.945Z,66.70
2018-10-17T03:21:52.598Z,66.79
2018-10-17T03:24:21.846Z,66.79
2018-10-17T03:26:50.440Z,67.65
2018-10-17T03:29:19.372Z,67.30
2018-10-17T03:31:47.851Z,67.29
2018-10-17T03:34:16.906Z,66.96
2018-10-17T03:36:45.378Z,67.05
2018-10-17T03:39:14.011Z,67.26
2018-10-17T03:41:42.458Z,67.11
2018-10-17T03:44:11.148Z,67.61
2018-10-17T03:46:39.824Z,67.85
2018-10-17T03:49:08.759Z,67.32
2018-10-17T03:51:37.247Z,68.21
2018-10-17T03:54:06.000Z,68.26
2018-10-17T03:56:34.652Z,67.77
2018-10-17T03:59:03.286Z,68.08
2018-10-17T04:01:37.139Z,68.45
2018-10-17T04:04:05.725Z,67.69
2018-10-17T04:06:34.626Z,67.99
2018-10-17T04:09:03.354Z,68.27
2018-10-17T04:11:31.796Z,68.24
2018-10-17T04:14:00.341Z,68.03
2018-10-17T04:16:28.918Z,68.75
2018-10-17T04:18:57.489Z,68.34
2018-10-17T04:21:26.068Z,67.96
2018-10-17T04:23:54.505Z,68.51
2018-10-17T04:26:23.308Z,69.28
2018-10-17T04:28:51.880Z,68.41
2018-10-17T04:31:20.647Z,69.17
2018-10-17T04:33:49.232Z,69.15
2018-10-17T04:36:18.062Z,69.10
2018-10-17T04:38:46.767Z,69.36
2018-10-17T04:41:15.554Z,69.18
2018-10-17T04:43:44.305Z,68.94
2018-10-17T04:46:12.814Z,69.03
2018-10-17T04:48:41.328Z,68.49
2018-10-17T04:51:09.885Z,69.15
2018-10-17T04:53:38.415Z,68.79
2018-10-17T04:56:07.164Z,69.28
2018-10-17T04:58:35.746Z,68.84
2018-10-17T05:01:04.173Z,69.40
2018-10-17T05:03:32.652Z,68.74
2018-10-17T05:06:01.441Z,69.06
2018-10-17T05:08:29.904Z,70.13
2018-10-17T05:10:58.489Z,69.30
2018-10-17T05:13:26.959Z,69.91
2018-10-17T05:15:55.623Z,69.93
2018-10-17T05:18:24.043Z,69.07
2018-10-17T05:20:52.634Z,69.32
2018-10-17T05:23:22.305Z,69.60
2018-10-17T05:25:54.888Z,69.31
2018-10-17T05:28:23.479Z,69.65
2018-10-17T05:30:51.940Z,69.76
2018-10-17T05:33:20.449Z,69.94
2018-10-17T05:35:48.997Z,69.60
2018-10-17T05:38:18.061Z,69.15
2018-10-17T05:40:47.090Z,69.37
2018-10-17T05:43:15.770Z,69.11
2018-10-17T05:45:44.387Z,69.09
2018-10-17T05:48:12.943Z,68.85
2018-10-17T05:50:42.363Z,68.96
2018-10-17T05:53:10.994Z,69.33
2018-10-17T05:55:39.685Z,69.62
2018-10-17T05:58:08.240Z,69.15
2018-10-17T06:00:36.788Z,69.73
2018-10-17T06:03:05.748Z,69.00
2018-10-17T06:05:34.205Z,69.25
2018-10-17T06:08:03.679Z,69.10
2018-10-17T06:10:32.237Z,69.33
2018-10-17T06:13:00.743Z,69.97
2018-10-17T06:15:29.148Z,69.99
2018-10-17T06:17:57.732Z,69.80
2018-10-17T06:20:26.302Z,69.85
2018-10-17T06:22:54.816Z,69.87
2018-10-17T06:25:23.451Z,70.03
2018-10-17T06:27:52.147Z,69.57
2018-10-17T06:30:20.746Z,69.92
2018-10-17T06:32:50.393Z,69.46
2018-10-17T06:35:18.999Z,69.63
2018-10-17T06:37:48.433Z,69.96
2018-10-17T06:40:17.035Z,69.86
2018-10-17T06:42:45.560Z,69.34
2018-10-17T06:45:14.130Z,69.57
2018-10-17T06:47:46.323Z,69.56
2018-10-17T06:50:14.801Z,69.93
2018-10-17T06:52:43.443Z,69.86
2018-10-17T06:55:12.047Z,69.81
2018-10-17T06:57:40.509Z,69.75
2018-10-17T07:00:09.868Z,69.60
2018-10-17T07:02:38.330Z,69.18
2018-10-17T07:05:07.791Z,69.08
2018-10-17T07:07:36.216Z,68.89
2018-10-17T07:10:05.662Z,69.07
2018-10-17T07:12:34.969Z,69.39
2018-10-17T07:15:03.637Z,69.49
2018-10-17T07:17:32.265Z,68.81
2018-10-17T07:20:00.865Z,69.34
2018-10-17T07:22:29.476Z,68.91
2018-10-17T07:24:58.175Z,68.67
2018-10-17T07:27:26.868Z,69.02
2018-10-17T07:29:55.401Z,68.96
2018-10-17T07:32:23.750Z,68.95
2018-10-17T07:34:52.297Z,68.57
2018-10-17T07:37:20.836Z,68.77
2018-10-17T07:39:49.500Z,68.82
2018-10-17T07:42:18.716Z,68.31
2018-10-17T07:44:47.353Z,69.37
2018-10-17T07:47:16.047Z,69.00
2018-10-17T07:49:44.673Z,68.99
2018-10-17T07:52:13.646Z,68.51
2018-10-17T07:54:42.198Z,67.96
2018-10-17T07:57:10.968Z,68.23
2018-10-17T07:59:39.717Z,68.47
2018-10-17T08:02:08.243Z,68.06
2018-10-17T08:04:37.028Z,67.75
2018-10-17T08:07:06.556Z,67.73
2018-10-17T08:09:36.453Z,67.29
2018-10-17T08:12:05.409Z,67.34
2018-10-17T08:14:34.730Z,66.98
2018-10-17T08:17:03.235Z,67.04
2018-10-17T08:19:31.738Z,66.20
2018-10-17T08:22:00.305Z,66.52
2018-10-17T08:24:29.158Z,65.64
2018-10-17T08:26:58.067Z,65.93
2018-10-17T08:29:26.705Z,65.88
2018-10-17T08:31:56.038Z,65.96
2018-10-17T08:34:24.536Z,66.26
2018-10-17T08:36:53.360Z,65.42
2018-10-17T08:39:21.601Z,65.67
2018-10-17T08:41:50.148Z,65.87
2018-10-17T08:44:19.097Z,65.29
2018-10-17T08:46:47.655Z,65.50
2018-10-17T08:49:16.400Z,64.58
2018-10-17T08:51:44.856Z,65.31
2018-10-17T08:54:13.512Z,65.48
2018-10-17T08:56:42.088Z,65.37
2018-10-17T08:59:10.696Z,64.19
2018-10-17T09:01:39.216Z,64.28
2018-10-17T09:04:08.056Z,64.14
2018-10-17T09:06:36.541Z,64.15
2018-10-17T09:09:09.298Z,64.51
2018-10-17T09:11:38.401Z,64.14
2018-10-17T09:14:06.997Z,64.08
2018-10-17T09:16:35.486Z,64.07
2018-10-17T09:19:04.052Z,62.90
2018-10-17T09:21:32.760Z,62.62
2018-10-17T09:24:01.469Z,62.63
2018-10-17T09:26:30.331Z,63.41
2018-10-17T09:28:59.202Z,62.94
2018-10-17T09:31:28.967Z,62.79
2018-10-17T09:33:57.473Z,61.67
2018-10-17T09:36:26.123Z,61.27
2018-10-17T09:38:54.879Z,62.78
2018-10-17T09:41:23.605Z,61.29
2018-10-17T09:43:52.692Z,61.46
2018-10-17T09:46:21.452Z,61.00
2018-10-17T09:48:50.776Z,60.81
2018-10-17T09:51:19.409Z,60.12
2018-10-17T09:53:48.032Z,59.42
2018-10-17T09:56:16.537Z,60.93
2018-10-17T09:58:45.091Z,60.20
2018-10-17T10:01:16.609Z,59.44
2018-10-17T10:03:45.201Z,59.31
2018-10-17T10:06:13.908Z,59.50
2018-10-17T10:08:42.812Z,58.99
2018-10-17T10:11:11.441Z,58.95
2018-10-17T10:13:40.041Z,58.95
2018-10-17T10:16:08.568Z,58.02
2018-10-17T10:18:37.353Z,58.29
2018-10-17T10:21:06.744Z,58.02
2018-10-17T10:23:35.309Z,58.57
2018-10-17T10:26:03.664Z,58.36
2018-10-17T10:28:32.403Z,58.02
2018-10-17T10:31:00.873Z,57.04
2018-10-17T10:33:29.532Z,56.26
2018-10-17T10:35:58.389Z,56.86
2018-10-17T10:38:26.899Z,56.21
2018-10-17T10:40:55.602Z,55.90
2018-10-17T10:43:24.108Z,56.36
2018-10-17T10:45:52.613Z,56.14
2018-10-17T10:48:21.107Z,55.10
2018-10-17T10:50:50.014Z,55.80
2018-10-17T10:53:18.487Z,55.58
2018-10-17T10:55:47.168Z,55.25
2018-10-17T10:58:16.491Z,54.22
2018-10-17T11:00:45.257Z,53.65
2018-10-17T11:03:13.905Z,54.36
2018-10-17T11:05:42.472Z,54.10
2018-10-17T11:08:11.133Z,53.68
2018-10-17T11:10:39.780Z,53.00
2018-10-17T11:13:08.628Z,51.31
2018-10-17T11:15:38.133Z,51.73
2018-10-17T11:18:06.671Z,52.13
2018-10-17T11:20:35.142Z,52.82
2018-10-17T11:23:03.863Z,51.36
2018-10-17T11:25:32.538Z,50.76
2018-10-17T11:28:01.415Z,49.75
2018-10-17T11:30:30.381Z,50.29
2018-10-17T11:32:59.974Z,49.31
2018-10-17T11:35:29.675Z,49.49
2018-10-17T11:37:59.068Z,48.51
2018-10-17T11:40:27.458Z,47.75
2018-10-17T11:42:55.986Z,48.13
2018-10-17T11:45:24.696Z,48.17
2018-10-17T11:47:53.430Z,47.98
2018-10-17T11:50:22.067Z,46.55
2018-10-17T11:52:51.147Z,44.82
2018-10-17T11:55:19.837Z,46.80
2018-10-17T11:57:48.515Z,45.90
2018-10-17T12:00:17.252Z,47.40
2018-10-17T12:02:46.491Z,46.75
2018-10-17T12:05:16.757Z,45.54
2018-10-17T12:07:45.312Z,45.24
2018-10-17T12:10:14.657Z,44.72
2018-10-17T12:12:43.270Z,44.46
2018-10-17T12:15:13.468Z,46.03
2018-10-17T12:17:42.410Z,45.18
2018-10-17T12:20:12.886Z,44.17
2018-10-17T12:22:42.126Z,44.80
2018-10-17T12:25:11.747Z,43.39
2018-10-17T12:27:40.481Z,43.48
2018-10-17T12:30:12.058Z,43.72
2018-10-17T12:32:40.825Z,43.10
2018-10-17T12:35:09.738Z,42.46
2018-10-17T12:37:38.468Z,43.66
2018-10-17T12:40:08.642Z,41.89
2018-10-17T12:42:37.435Z,42.13
2018-10-17T12:45:07.078Z,42.24
2018-10-17T12:47:35.990Z,41.50
2018-10-17T12:50:04.785Z,41.19
2018-10-17T12:52:33.318Z,41.12
2018-10-17T12:55:01.883Z,40.91
2018-10-17T12:57:31.288Z,43.08
2018-10-17T13:00:00.869Z,43.24
2018-10-17T13:02:30.116Z,42.09
2018-10-17T13:04:58.743Z,40.88
2018-10-17T13:07:27.481Z,40.90
2018-10-17T13:09:56.104Z,40.73
2018-10-17T13:12:24.708Z,40.85
2018-10-17T13:14:53.356Z,40.65
2018-10-17T13:17:21.878Z,40.02
2018-10-17T13:19:50.707Z,40.92
2018-10-17T13:22:19.371Z,40.58
2018-10-17T13:24:48.094Z,40.80
2018-10-17T13:27:16.944Z,40.95
2018-10-17T13:29:45.565Z,40.18
2018-10-17T13:32:14.012Z,39.93
2018-10-17T13:34:43.600Z,41.00
2018-10-17T13:37:12.271Z,40.52
2018-10-17T13:39:40.733Z,41.20
2018-10-17T13:42:10.016Z,40.40
2018-10-17T13:44:39.227Z,41.08
2018-10-17T13:47:08.147Z,40.52
2018-10-17T13:49:37.147Z,41.09
2018-10-17T13:52:05.843Z,40.09
2018-10-17T13:54:34.651Z,40.50
2018-10-17T13:57:03.367Z,39.02
2018-10-17T13:59:31.930Z,39.55
2018-10-17T14:02:00.557Z,39.63
2018-10-17T14:04:29.496Z,38.77
2018-10-17T14:06:58.268Z,40.47
2018-10-17T14:09:27.078Z,40.96
2018-10-17T14:11:55.843Z,41.58
2018-10-17T14:14:24.765Z,42.07
2018-10-17T14:16:53.329Z,42.28
2018-10-17T14:19:22.446Z,42.73
2018-10-17T14:21:51.115Z,42.80
2018-10-17T14:24:19.669Z,43.71
2018-10-17T14:26:48.397Z,44.36
2018-10-17T14:29:16.870Z,44.93
2018-10-17T14:31:45.346Z,44.14
2018-10-17T14:34:13.852Z,45.33
2018-10-17T14:36:42.359Z,45.36
2018-10-17T14:39:12.924Z,46.39
2018-10-17T14:41:41.845Z,47.21
2018-10-17T14:44:10.581Z,46.71
2018-10-17T14:46:39.213Z,46.58
2018-10-17T14:49:07.788Z,47.95
2018-10-17T14:51:36.504Z,47.61
2018-10-17T14:54:05.042Z,47.39
2018-10-17T14:56:33.523Z,48.05
2018-10-17T14:59:02.361Z,47.98
2018-10-17T15:01:31.243Z,48.76
2018-10-17T15:04:00.290Z,48.07
2018-10-17T15:06:28.895Z,48.91
2018-10-17T15:08:57.573Z,49.41
2018-10-17T15:11:26.218Z,49.00
2018-10-17T15:13:55.463Z,49.11
2018-10-17T15:16:24.188Z,49.54
2018-10-17T15:18:52.757Z,49.18
2018-10-17T15:21:21.294Z,50.04
2018-10-17T15:23:49.920Z,49.52
2018-10-17T15:26:18.428Z,49.73
2018-10-17T15:28:46.896Z,50.09
2018-10-17T15:31:15.581Z,50.52
2018-10-17T15:33:44.293Z,51.62
2018-10-17T15:36:13.116Z,51.56
2018-10-17T15:38:42.313Z,51.72
2018-10-17T15:41:11.166Z,51.26
2018-10-17T15:43:40.008Z,51.62
2018-10-17T15:46:08.907Z,51.91
2018-10-17T15:48:37.589Z,51.88
2018-10-17T15:51:06.657Z,52.29
2018-10-17T15:53:35.639Z,53.29
2018-10-17T15:56:04.505Z,52.98
2018-10-17T15:58:33.265Z,53.87
2018-10-17T16:01:02.485Z,53.59
2018-10-17T16:03:31.184Z,54.17
2018-10-17T16:05:59.978Z,54.27
2018-10-17T16:08:28.604Z,55.03
2018-10-17T16:10:57.457Z,54.08
2018-10-17T16:13:26.571Z,54.58
2018-10-17T16:15:55.244Z,55.61
2018-10-17T16:18:24.727Z,55.66
2018-10-17T16:20:53.697Z,55.73
2018-10-17T16:23:22.404Z,55.38
2018-10-17T16:25:51.263Z,55.54
2018-10-17T16:28:19.841Z,56.54
2018-10-17T16:30:49.072Z,56.45
2018-10-17T16:33:18.553Z,57.02
2018-10-17T16:35:47.400Z,57.16
2018-10-17T16:38:16.195Z,57.03
2018-10-17T16:40:45.136Z,57.31
2018-10-17T16:43:13.832Z,58.21
2018-10-17T16:45:42.463Z,57.30
2018-10-17T16:48:11.868Z,57.43
2018-10-17T16:50:40.459Z,58.65
2018-10-17T16:53:09.019Z,58.31
2018-10-17T16:55:37.629Z,59.43
2018-10-17T16:58:06.620Z,59.40
2018-10-17T17:00:35.669Z,59.81
2018-10-17T17:03:04.381Z,60.34
2018-10-17T17:05:32.863Z,60.28
2018-10-17T17:08:01.597Z,60.86
2018-10-17T17:10:30.993Z,61.65
2018-10-17T17:12:59.744Z,61.81
2018-10-17T17:15:28.257Z,62.23
2018-10-17T17:17:57.181Z,62.14
2018-10-17T17:20:25.823Z,62.42
2018-10-17T17:22:54.489Z,63.04
2018-10-17T17:25:23.102Z,63.37
2018-10-17T17:27:51.895Z,63.52
2018-10-17T17:30:20.606Z,64.32
2018-10-17T17:32:49.594Z,64.33
2018-10-17T17:37:47.990Z,64.79
2018-10-17T17:40:23.523Z,65.75
2018-10-17T17:42:52.170Z,65.51
2018-10-17T17:45:20.676Z,65.66
2018-10-17T17:47:49.371Z,65.96
2018-10-17T17:50:17.973Z,66.20
2018-10-17T17:52:46.780Z,66.51
2018-10-17T17:55:15.345Z,67.12
2018-10-17T17:57:44.779Z,67.94
2018-10-17T18:00:13.293Z,68.50
2018-10-17T18:02:42.810Z,68.55
2018-10-17T18:05:11.450Z,69.06
2018-10-17T18:07:40.147Z,68.43
2018-10-17T18:10:08.889Z,69.26
2018-10-17T18:12:38.024Z,68.85
2018-10-17T18:15:07.403Z,68.93
2018-10-17T18:17:36.042Z,68.96
2018-10-17T18:20:04.832Z,68.32
2018-10-17T18:22:33.323Z,69.26
2018-10-17T18:25:01.792Z,69.15
2018-10-17T18:27:30.357Z,68.51
2018-10-17T18:29:59.534Z,69.69
2018-10-17T18:32:28.248Z,69.01
2018-10-17T18:35:12.974Z,70.12
2018-10-17T18:40:52.818Z,69.49
2018-10-17T18:44:03.270Z,69.83
2018-10-17T18:49:24.348Z,71.01
2018-10-17T18:52:05.748Z,70.11
2018-10-17T18:54:50.277Z,70.28
2018-10-17T18:57:33.140Z,70.56
2018-10-17T19:00:10.672Z,70.40
2018-10-17T19:02:56.541Z,70.57
2018-10-17T19:05:41.629Z,70.88
2018-10-17T19:08:36.308Z,70.29
2018-10-17T19:11:14.315Z,70.29
2018-10-17T19:13:50.269Z,70.52
2018-10-17T19:16:26.718Z,70.76
2018-10-17T19:19:01.526Z,71.07
2018-10-17T19:21:39.759Z,71.02
2018-10-17T19:26:56.504Z,71.70
2018-10-17T19:32:19.635Z,71.10
2018-10-17T19:35:01.335Z,70.94
2018-10-17T19:37:37.589Z,71.66
2018-10-17T19:40:11.426Z,71.50
2018-10-17T19:42:42.544Z,71.77
2018-10-17T19:45:16.741Z,71.66
2018-10-17T19:47:45.194Z,71.85
2018-10-17T19:50:13.672Z,72.09
2018-10-17T19:52:42.191Z,72.16
2018-10-17T19:55:11.266Z,72.37
2018-10-17T19:57:39.973Z,72.51
2018-10-17T20:00:11.049Z,72.76
2018-10-17T20:02:39.830Z,72.48
2018-10-17T20:05:09.065Z,72.50
2018-10-17T20:07:37.679Z,73.22
2018-10-17T20:10:08.332Z,73.25
2018-10-17T20:12:37.624Z,72.84
2018-10-17T20:15:07.511Z,73.56
2018-10-17T20:17:36.072Z,73.12
2018-10-17T20:20:05.234Z,73.73
2018-10-17T20:22:33.944Z,74.25
2018-10-17T20:25:02.546Z,74.18
2018-10-17T20:27:31.093Z,73.86
2018-10-17T20:29:59.708Z,74.80
2018-10-17T20:32:29.324Z,74.90
2018-10-17T20:34:58.221Z,74.29
2018-10-17T20:37:27.597Z,75.55
2018-10-17T20:39:56.381Z,75.59
2018-10-17T20:42:25.739Z,75.00
2018-10-17T20:44:54.463Z,75.47
2018-10-17T20:47:23.231Z,74.62
2018-10-17T20:49:53.280Z,75.02
2018-10-17T20:52:21.868Z,75.38
2018-10-17T20:54:50.458Z,76.10
2018-10-17T20:57:19.064Z,75.26
2018-10-17T20:59:47.698Z,76.23
2018-10-17T21:02:16.247Z,75.60
2018-10-17T21:04:44.822Z,76.30
2018-10-17T21:07:13.626Z,76.48
2018-10-17T21:09:42.400Z,76.24
2018-10-17T21:12:10.943Z,76.47
2018-10-17T21:14:39.821Z,76.36
2018-10-17T21:17:08.450Z,77.04
2018-10-17T21:19:37.037Z,76.55
2018-10-17T21:22:05.852Z,77.44
2018-10-17T21:24:34.409Z,76.59
2018-10-17T21:27:03.116Z,76.87
2018-10-17T21:29:31.717Z,77.61
2018-10-17T21:32:00.424Z,78.16
2018-10-17T21:34:29.730Z,77.44
2018-10-17T21:36:58.205Z,77.94
2018-10-17T21:39:27.652Z,78.36
2018-10-17T21:41:56.801Z,78.72
2018-10-17T21:44:25.508Z,78.79
2018-10-17T21:46:54.084Z,79.14
2018-10-17T21:49:22.881Z,78.26
2018-10-17T21:51:51.453Z,78.28
2018-10-17T21:54:20.139Z,78.95
2018-10-17T21:56:48.777Z,78.38
2018-10-17T21:59:17.268Z,77.88
2018-10-17T22:21:55.115Z,79.21
2018-10-17T22:24:23.562Z,79.02
2018-10-17T22:26:52.259Z,79.44
2018-10-17T22:29:20.824Z,79.68
2018-10-17T22:31:49.478Z,79.93
2018-10-17T22:34:18.359Z,79.42
2018-10-17T22:36:47.428Z,79.66
2018-10-17T22:39:16.091Z,79.64
2018-10-17T22:41:45.791Z,80.09
2018-10-17T22:44:14.537Z,80.02
2018-10-17T22:46:43.995Z,80.15
2018-10-17T22:49:12.580Z,80.10
2018-10-17T22:51:41.185Z,80.53
2018-10-17T22:54:09.888Z,80.83
2018-10-17T22:56:39.436Z,80.77
2018-10-17T22:59:08.103Z,79.93
2018-10-17T23:01:37.110Z,80.00
2018-10-17T23:04:06.845Z,80.30
2018-10-17T23:06:35.335Z,80.22
2018-10-17T23:09:06.620Z,81.03
2018-10-17T23:11:35.229Z,80.94
2018-10-17T23:14:04.463Z,81.39
2018-10-17T23:16:32.965Z,81.12
2018-10-17T23:19:01.593Z,80.84
2018-10-17T23:21:30.034Z,80.69
2018-10-17T23:23:58.948Z,81.16
2018-10-17T23:26:27.594Z,81.21
2018-10-17T23:28:56.075Z,81.46
2018-10-17T23:31:25.420Z,81.27
2018-10-17T23:33:54.390Z,81.95
2018-10-17T23:36:23.294Z,81.35
2018-10-17T23:38:52.253Z,81.84
2018-10-17T23:41:21.379Z,81.90
2018-10-17T23:43:49.844Z,82.02
2018-10-17T23:46:18.380Z,82.63
2018-10-17T23:48:46.810Z,81.76
2018-10-17T23:51:15.278Z,82.42
2018-10-17T23:53:43.851Z,82.30
2018-10-17T23:56:13.125Z,81.88
2018-10-17T23:58:41.490Z,82.79
